createdAt,value
2019-05-06T00:00:01.858Z,100556.88
2019-05-06T00:02:34.168Z,100555.50
2019-05-06T00:05:07.028Z,100546.36
2019-05-06T00:07:39.316Z,100551.27
2019-05-06T00:10:26.343Z,100551.42
2019-05-06T00:12:58.807Z,100551.95
2019-05-06T00:15:31.001Z,100549.72
2019-05-06T00:18:04.489Z,100548.38
2019-05-06T00:20:37.413Z,100552.28
2019-05-06T00:23:15.101Z,100553.11
2019-05-06T00:26:06.577Z,100554.63
2019-05-06T00:28:44.734Z,100555.14
2019-05-06T00:31:18.909Z,100555.14
2019-05-06T00:33:53.834Z,100545.99
2019-05-06T00:36:25.933Z,100551.44
2019-05-06T00:39:01.684Z,100551.44
2019-05-06T00:41:36.474Z,100550.24
2019-05-06T00:44:06.716Z,100544.66
2019-05-06T00:46:37.965Z,100549.72
2019-05-06T00:49:10.325Z,100551.12
2019-05-06T00:51:45.894Z,100549.05
2019-05-06T00:54:21.600Z,100548.70
2019-05-06T00:56:54.338Z,100553.66
2019-05-06T00:59:26.871Z,100553.66
2019-05-06T01:01:58.873Z,100560.25
2019-05-06T01:04:30.910Z,100548.06
2019-05-06T01:07:03.908Z,100555.67
2019-05-06T01:09:36.913Z,100554.18
2019-05-06T01:12:10.542Z,100561.45
2019-05-06T01:14:47.649Z,100564.69
2019-05-06T01:17:19.665Z,100564.69
2019-05-06T01:19:53.971Z,100566.57
2019-05-06T01:22:26.098Z,100568.11
2019-05-06T01:24:58.293Z,100568.11
2019-05-06T01:27:30.608Z,100567.58
2019-05-06T01:30:04.380Z,100582.66
2019-05-06T01:32:37.318Z,100582.66
2019-05-06T01:35:09.873Z,100574.87
2019-05-06T01:37:44.293Z,100580.97
2019-05-06T01:40:38.508Z,100577.92
2019-05-06T01:43:18.324Z,100585.89
2019-05-06T01:45:50.873Z,100581.62
2019-05-06T01:48:41.833Z,100583.33
2019-05-06T01:51:14.353Z,100589.30
2019-05-06T01:53:47.101Z,100584.05
2019-05-06T01:56:19.847Z,100587.42
2019-05-06T01:58:53.596Z,100583.37
2019-05-06T02:01:25.202Z,100590.33
2019-05-06T02:03:57.848Z,100601.16
2019-05-06T02:06:29.884Z,100601.98
2019-05-06T02:09:01.872Z,100601.18
2019-05-06T02:11:34.094Z,100596.09
2019-05-06T02:14:06.837Z,100604.06
2019-05-06T02:16:39.331Z,100604.91
2019-05-06T02:19:11.875Z,100604.59
2019-05-06T02:22:13.682Z,100605.75
2019-05-06T02:24:49.701Z,100611.02
2019-05-06T02:27:20.724Z,100616.27
2019-05-06T02:29:57.296Z,100613.55
2019-05-06T02:32:45.379Z,100622.17
2019-05-06T02:35:26.606Z,100620.83
2019-05-06T02:37:57.826Z,100631.17
2019-05-06T02:40:33.203Z,100625.06
2019-05-06T02:43:05.837Z,100627.41
2019-05-06T02:45:37.866Z,100626.41
2019-05-06T02:48:19.324Z,100623.91
2019-05-06T02:51:09.601Z,100621.34
2019-05-06T02:53:42.881Z,100610.08
2019-05-06T02:56:15.848Z,100610.08
2019-05-06T02:58:48.321Z,100625.06
2019-05-06T03:01:23.398Z,100634.56
2019-05-06T03:03:54.329Z,100631.33
2019-05-06T03:06:26.923Z,100628.62
2019-05-06T03:08:59.545Z,100630.13
2019-05-06T03:11:33.183Z,100632.87
2019-05-06T03:14:05.891Z,100632.87
2019-05-06T03:16:37.850Z,100638.81
2019-05-06T03:19:13.318Z,100631.28
2019-05-06T03:22:07.353Z,100631.97
2019-05-06T03:25:07.886Z,100632.84
2019-05-06T03:27:39.865Z,100632.66
2019-05-06T03:30:16.381Z,100637.25
2019-05-06T03:33:20.360Z,100640.98
2019-05-06T03:35:36.082Z,100635.89
2019-05-06T03:37:54.876Z,100635.72
2019-05-06T03:40:27.314Z,100635.72
2019-05-06T03:43:02.504Z,100639.33
2019-05-06T03:45:45.315Z,100646.56
2019-05-06T03:48:23.959Z,100650.48
2019-05-06T03:50:56.497Z,100659.69
2019-05-06T03:53:33.398Z,100658.42
2019-05-06T03:56:05.315Z,100663.85
2019-05-06T03:58:39.315Z,100662.55
2019-05-06T04:01:13.169Z,100669.45
2019-05-06T04:03:51.555Z,100664.21
2019-05-06T04:06:19.589Z,100665.17
2019-05-06T04:08:53.006Z,100666.20
2019-05-06T04:11:25.878Z,100666.20
2019-05-06T04:13:57.849Z,100666.05
2019-05-06T04:16:45.571Z,100666.59
2019-05-06T04:19:36.584Z,100657.36
2019-05-06T04:22:17.139Z,100657.36
2019-05-06T04:25:07.397Z,100667.89
2019-05-06T04:28:33.942Z,100668.22
2019-05-06T04:31:04.306Z,100681.09
2019-05-06T04:33:36.369Z,100688.72
2019-05-06T04:36:08.060Z,100683.66
2019-05-06T04:38:39.785Z,100691.14
2019-05-06T04:41:13.668Z,100688.09
2019-05-06T04:43:44.752Z,100693.16
2019-05-06T04:46:16.883Z,100687.72
2019-05-06T04:48:48.758Z,100693.11
2019-05-06T04:51:19.576Z,100697.87
2019-05-06T04:53:53.677Z,100691.72
2019-05-06T04:56:25.339Z,100691.72
2019-05-06T04:58:57.072Z,100700.00
2019-05-06T05:01:29.136Z,100703.27
2019-05-06T05:04:03.303Z,100698.73
2019-05-06T05:06:34.293Z,100703.67
2019-05-06T05:09:06.745Z,100699.23
2019-05-06T05:12:02.746Z,100700.92
2019-05-06T05:14:52.050Z,100711.59
2019-05-06T05:17:52.574Z,100708.44
2019-05-06T05:20:36.502Z,100712.52
2019-05-06T05:22:57.803Z,100718.23
2019-05-06T05:25:29.807Z,100713.80
2019-05-06T05:28:02.199Z,100713.84
2019-05-06T05:30:35.318Z,100713.69
2019-05-06T05:33:07.812Z,100716.95
2019-05-06T05:35:39.867Z,100712.55
2019-05-06T05:38:13.095Z,100717.65
2019-05-06T05:40:45.806Z,100715.45
2019-05-06T05:43:42.301Z,100715.91
2019-05-06T05:46:13.862Z,100715.39
2019-05-06T05:49:14.046Z,100714.91
2019-05-06T05:51:46.049Z,100713.75
2019-05-06T05:54:18.324Z,100720.72
2019-05-06T05:56:52.746Z,100719.83
2019-05-06T05:59:24.879Z,100700.17
2019-05-06T06:01:56.927Z,100700.17
2019-05-06T06:04:29.375Z,100713.59
2019-05-06T06:07:02.742Z,100717.70
2019-05-06T06:09:41.912Z,100719.10
2019-05-06T06:12:15.155Z,100716.54
2019-05-06T06:14:56.318Z,100716.72
2019-05-06T06:17:42.664Z,100716.73
2019-05-06T06:20:32.727Z,100714.38
2019-05-06T06:23:14.325Z,100713.19
2019-05-06T06:25:46.807Z,100712.33
2019-05-06T06:28:18.826Z,100710.48
2019-05-06T06:31:03.448Z,100705.72
2019-05-06T06:33:35.868Z,100712.20
2019-05-06T06:36:24.113Z,100710.83
2019-05-06T06:39:22.883Z,100712.19
2019-05-06T06:41:54.870Z,100719.84
2019-05-06T06:44:29.539Z,100721.55
2019-05-06T06:47:02.177Z,100725.44
2019-05-06T06:49:34.676Z,100716.27
2019-05-06T06:52:11.110Z,100710.01
2019-05-06T06:54:43.611Z,100710.31
2019-05-06T06:57:33.916Z,100706.08
2019-05-06T07:00:22.294Z,100706.08
2019-05-06T07:03:21.746Z,100704.38
2019-05-06T07:06:07.541Z,100703.88
2019-05-06T07:08:39.828Z,100702.00
2019-05-06T07:11:13.050Z,100698.27
2019-05-06T07:13:55.889Z,100705.39
2019-05-06T07:16:27.818Z,100704.39
2019-05-06T07:19:02.969Z,100705.73
2019-05-06T07:21:56.567Z,100708.30
2019-05-06T07:24:29.100Z,100699.11
2019-05-06T07:27:07.290Z,100699.11
2019-05-06T07:29:47.734Z,100708.81
2019-05-06T07:32:14.321Z,100705.06
2019-05-06T07:34:46.911Z,100711.87
2019-05-06T07:37:18.859Z,100715.59
2019-05-06T07:39:52.865Z,100705.77
2019-05-06T07:42:32.178Z,100700.47
2019-05-06T07:45:17.542Z,100702.34
2019-05-06T07:47:53.393Z,100699.28
2019-05-06T07:50:25.829Z,100699.28
2019-05-06T07:53:10.658Z,100698.09
2019-05-06T07:55:42.804Z,100693.16
2019-05-06T07:58:15.030Z,100693.16
2019-05-06T08:00:47.330Z,100703.03
2019-05-06T08:03:22.113Z,100703.38
2019-05-06T08:05:58.389Z,100702.01
2019-05-06T08:08:27.864Z,100688.73
2019-05-06T08:10:59.898Z,100688.73
2019-05-06T08:13:32.422Z,100711.19
2019-05-06T08:16:04.964Z,100704.22
2019-05-06T08:18:39.283Z,100708.47
2019-05-06T08:21:22.366Z,100709.84
2019-05-06T08:23:54.901Z,100703.02
2019-05-06T08:26:27.313Z,100704.89
2019-05-06T08:28:59.859Z,100701.83
2019-05-06T08:31:32.785Z,100704.23
2019-05-06T08:34:05.040Z,100709.31
2019-05-06T08:36:54.685Z,100704.70
2019-05-06T08:39:25.725Z,100704.87
2019-05-06T08:41:57.919Z,100695.38
2019-05-06T08:44:32.121Z,100693.16
2019-05-06T08:47:04.346Z,100684.83
2019-05-06T08:49:55.074Z,100684.83
2019-05-06T08:52:32.520Z,100685.88
2019-05-06T08:55:04.971Z,100692.98
2019-05-06T08:57:36.919Z,100693.47
2019-05-06T09:00:08.878Z,100694.67
2019-05-06T09:02:42.519Z,100693.16
2019-05-06T09:05:14.882Z,100688.73
2019-05-06T09:07:47.755Z,100688.73
2019-05-06T09:10:18.719Z,100684.84
2019-05-06T09:12:52.499Z,100685.69
2019-05-06T09:15:24.850Z,100684.16
2019-05-06T09:17:56.849Z,100679.89
2019-05-06T09:20:28.891Z,100678.56
2019-05-06T09:23:04.530Z,100669.70
2019-05-06T09:25:36.068Z,100672.23
2019-05-06T09:28:17.097Z,100672.23
2019-05-06T09:30:57.470Z,100671.06
2019-05-06T09:33:35.669Z,100666.95
2019-05-06T09:36:06.716Z,100671.56
2019-05-06T09:38:37.726Z,100669.52
2019-05-06T09:41:09.092Z,100671.92
2019-05-06T09:43:43.315Z,100673.80
2019-05-06T09:46:15.322Z,100671.39
2019-05-06T09:49:12.819Z,100675.31
2019-05-06T09:51:45.024Z,100674.45
2019-05-06T09:54:42.807Z,100670.73
2019-05-06T09:57:23.288Z,100672.42
2019-05-06T09:59:56.022Z,100676.00
2019-05-06T10:02:28.095Z,100679.92
2019-05-06T10:05:03.342Z,100677.87
2019-05-06T10:07:35.001Z,100669.88
2019-05-06T10:10:07.456Z,100669.03
2019-05-06T10:12:41.951Z,100675.50
2019-05-06T10:15:14.063Z,100682.98
2019-05-06T10:17:47.687Z,100675.83
2019-05-06T10:20:22.198Z,100680.59
2019-05-06T10:22:53.891Z,100676.02
2019-05-06T10:25:25.905Z,100676.02
2019-05-06T10:28:02.603Z,100679.07
2019-05-06T10:30:34.081Z,100687.23
2019-05-06T10:33:09.548Z,100686.89
2019-05-06T10:35:42.825Z,100686.73
2019-05-06T10:38:52.842Z,100684.67
2019-05-06T10:41:27.867Z,100685.86
2019-05-06T10:44:36.308Z,100683.65
2019-05-06T10:47:08.473Z,100684.47
2019-05-06T10:49:42.109Z,100682.95
2019-05-06T10:52:28.680Z,100678.35
2019-05-06T10:55:03.318Z,100670.04
2019-05-06T10:57:43.152Z,100670.04
2019-05-06T11:00:15.322Z,100677.17
2019-05-06T11:03:08.402Z,100667.97
2019-05-06T11:05:42.934Z,100672.92
2019-05-06T11:08:15.006Z,100665.12
2019-05-06T11:10:46.988Z,100665.12
2019-05-06T11:13:19.432Z,100668.48
2019-05-06T11:15:52.871Z,100666.28
2019-05-06T11:18:26.029Z,100668.66
2019-05-06T11:20:58.312Z,100668.66
2019-05-06T11:23:30.869Z,100666.42
2019-05-06T11:26:03.176Z,100655.53
2019-05-06T11:28:55.922Z,100656.05
2019-05-06T11:31:46.461Z,100658.42
2019-05-06T11:34:42.089Z,100660.47
2019-05-06T11:37:23.513Z,100649.41
2019-05-06T11:39:55.877Z,100639.20
2019-05-06T11:42:32.506Z,100639.20
2019-05-06T11:45:03.001Z,100647.17
2019-05-06T11:47:35.293Z,100646.14
2019-05-06T11:50:09.565Z,100641.41
2019-05-06T11:52:43.454Z,100628.16
2019-05-06T11:55:27.998Z,100628.16
2019-05-06T11:57:47.947Z,100639.05
2019-05-06T12:00:23.970Z,100643.05
2019-05-06T12:02:56.331Z,100645.42
2019-05-06T12:05:28.868Z,100634.38
2019-05-06T12:08:08.223Z,100637.65
2019-05-06T12:10:39.396Z,100638.30
2019-05-06T12:13:12.226Z,100638.30
2019-05-06T12:15:45.353Z,100640.53
2019-05-06T12:18:17.886Z,100640.21
2019-05-06T12:20:52.586Z,100635.61
2019-05-06T12:23:23.928Z,100614.55
2019-05-06T12:25:56.291Z,100614.55
2019-05-06T12:28:28.833Z,100633.37
2019-05-06T12:31:01.332Z,100631.80
2019-05-06T12:33:44.339Z,100630.28
2019-05-06T12:36:24.845Z,100638.45
2019-05-06T12:39:17.546Z,100636.57
2019-05-06T12:42:07.797Z,100639.81
2019-05-06T12:44:41.854Z,100632.53
2019-05-06T12:47:48.569Z,100632.20
2019-05-06T12:50:22.716Z,100635.41
2019-05-06T12:52:57.747Z,100628.60
2019-05-06T12:55:28.827Z,100627.20
2019-05-06T12:58:02.931Z,100627.20
2019-05-06T13:00:35.292Z,100622.28
2019-05-06T13:03:07.804Z,100628.92
2019-05-06T13:05:39.815Z,100631.84
2019-05-06T13:08:18.974Z,100634.60
2019-05-06T13:10:45.905Z,100628.61
2019-05-06T13:13:18.155Z,100630.13
2019-05-06T13:15:52.776Z,100631.00
2019-05-06T13:18:25.041Z,100635.41
2019-05-06T13:20:57.874Z,100635.41
2019-05-06T13:23:48.801Z,100634.73
2019-05-06T13:26:23.867Z,100633.20
2019-05-06T13:28:59.706Z,100635.41
2019-05-06T13:31:32.600Z,100624.52
2019-05-06T13:34:23.647Z,100622.28
2019-05-06T13:36:55.875Z,100618.91
2019-05-06T13:39:27.978Z,100624.36
2019-05-06T13:42:00.477Z,100618.39
2019-05-06T13:44:32.838Z,100614.83
2019-05-06T13:47:05.347Z,100619.95
2019-05-06T13:50:02.926Z,100622.68
2019-05-06T13:52:42.405Z,100624.72
2019-05-06T13:55:14.853Z,100607.70
2019-05-06T13:57:46.860Z,100607.75
2019-05-06T14:00:22.557Z,100603.66
2019-05-06T14:02:57.683Z,100605.70
2019-05-06T14:05:28.768Z,100601.66
2019-05-06T14:08:04.220Z,100601.70
2019-05-06T14:10:35.037Z,100599.14
2019-05-06T14:13:08.325Z,100599.14
2019-05-06T14:15:42.104Z,100599.66
2019-05-06T14:18:14.855Z,100591.74
2019-05-06T14:20:47.314Z,100596.09
2019-05-06T14:23:22.045Z,100601.20
2019-05-06T14:26:12.938Z,100600.22
2019-05-06T14:28:55.332Z,100602.95
2019-05-06T14:31:32.518Z,100604.05
2019-05-06T14:34:04.468Z,100600.65
2019-05-06T14:36:36.844Z,100604.60
2019-05-06T14:39:17.069Z,100600.80
2019-05-06T14:41:53.429Z,100608.60
2019-05-06T14:44:25.824Z,100610.30
2019-05-06T14:47:03.679Z,100610.30
2019-05-06T14:49:34.726Z,100609.36
2019-05-06T14:52:07.318Z,100609.36
2019-05-06T14:54:54.346Z,100615.05
2019-05-06T14:57:27.661Z,100611.51
2019-05-06T14:59:59.926Z,100597.07
2019-05-06T15:02:33.814Z,100597.07
2019-05-06T15:05:06.275Z,100592.39
2019-05-06T15:07:38.868Z,100592.39
2019-05-06T15:10:20.451Z,100609.34
2019-05-06T15:12:46.319Z,100606.00
2019-05-06T15:15:18.898Z,100608.75
2019-05-06T15:17:54.539Z,100608.80
2019-05-06T15:20:28.385Z,100615.94
2019-05-06T15:23:04.127Z,100607.09
2019-05-06T15:25:33.097Z,100605.42
2019-05-06T15:28:05.990Z,100607.55
2019-05-06T15:30:55.332Z,100608.98
2019-05-06T15:33:33.331Z,100603.80
2019-05-06T15:36:16.376Z,100601.63
2019-05-06T15:38:48.858Z,100604.69
2019-05-06T15:41:22.301Z,100609.19
2019-05-06T15:43:55.005Z,100610.91
2019-05-06T15:46:27.905Z,100611.77
2019-05-06T15:49:02.827Z,100610.59
2019-05-06T15:51:38.288Z,100610.66
2019-05-06T15:54:11.549Z,100608.52
2019-05-06T15:56:44.022Z,100614.13
2019-05-06T15:59:16.829Z,100614.13
2019-05-06T16:01:49.341Z,100609.88
2019-05-06T16:04:22.942Z,100611.28
2019-05-06T16:06:55.473Z,100606.16
2019-05-06T16:09:28.372Z,100611.25
2019-05-06T16:12:02.973Z,100609.41
2019-05-06T16:14:35.130Z,100604.69
2019-05-06T16:17:08.369Z,100599.04
2019-05-06T16:19:42.734Z,100603.81
2019-05-06T16:22:14.978Z,100602.48
2019-05-06T16:24:53.104Z,100605.73
2019-05-06T16:27:25.874Z,100602.81
2019-05-06T16:29:58.883Z,100598.25
2019-05-06T16:32:33.180Z,100597.73
2019-05-06T16:35:03.685Z,100599.97
2019-05-06T16:37:37.446Z,100601.70
2019-05-06T16:40:12.231Z,100592.69
2019-05-06T16:42:46.067Z,100592.70
2019-05-06T16:45:18.819Z,100588.61
2019-05-06T16:47:52.388Z,100588.61
2019-05-06T16:50:29.602Z,100592.02
2019-05-06T16:53:02.730Z,100587.45
2019-05-06T16:55:56.460Z,100586.57
2019-05-06T16:58:32.371Z,100594.89
2019-05-06T17:01:05.009Z,100589.97
2019-05-06T17:03:55.777Z,100591.17
2019-05-06T17:06:33.879Z,100588.98
2019-05-06T17:09:18.347Z,100592.09
2019-05-06T17:11:43.100Z,100592.48
2019-05-06T17:14:15.865Z,100592.09
2019-05-06T17:16:47.877Z,100594.01
2019-05-06T17:19:20.328Z,100592.84
2019-05-06T17:21:53.342Z,100592.28
2019-05-06T17:24:25.864Z,100587.24
2019-05-06T17:26:58.337Z,100591.80
2019-05-06T17:29:53.348Z,100590.96
2019-05-06T17:32:33.876Z,100593.84
2019-05-06T17:35:06.898Z,100593.69
2019-05-06T17:37:58.351Z,100591.64
2019-05-06T17:40:32.701Z,100596.09
2019-05-06T17:43:05.044Z,100592.59
2019-05-06T17:45:58.326Z,100592.59
2019-05-06T17:48:55.368Z,100594.98
2019-05-06T17:51:33.808Z,100596.56
2019-05-06T17:54:07.407Z,100593.22
2019-05-06T17:56:41.789Z,100596.99
2019-05-06T17:59:13.932Z,100596.73
2019-05-06T18:01:49.331Z,100596.73
2019-05-06T18:04:22.734Z,100599.50
2019-05-06T18:06:55.829Z,100597.14
2019-05-06T18:09:27.846Z,100601.70
2019-05-06T18:12:00.907Z,100601.94
2019-05-06T18:14:33.881Z,100610.51
2019-05-06T18:17:05.898Z,100610.51
2019-05-06T18:19:38.879Z,100606.30
2019-05-06T18:22:12.975Z,100612.38
2019-05-06T18:24:44.279Z,100615.58
2019-05-06T18:27:16.864Z,100609.50
2019-05-06T18:29:48.867Z,100616.63
2019-05-06T18:32:23.399Z,100614.98
2019-05-06T18:34:55.807Z,100617.00
2019-05-06T18:37:28.320Z,100619.11
2019-05-06T18:40:01.335Z,100624.72
2019-05-06T18:42:34.450Z,100627.28
2019-05-06T18:45:08.809Z,100629.48
2019-05-06T18:47:42.249Z,100626.12
2019-05-06T18:50:14.904Z,100630.88
2019-05-06T18:52:47.864Z,100634.31
2019-05-06T18:55:22.304Z,100634.83
2019-05-06T18:57:55.575Z,100642.28
2019-05-06T19:00:28.323Z,100633.11
2019-05-06T19:03:02.714Z,100633.11
2019-05-06T19:05:39.444Z,100648.43
2019-05-06T19:08:21.970Z,100655.75
2019-05-06T19:10:54.882Z,100661.38
2019-05-06T19:13:26.831Z,100662.39
2019-05-06T19:15:59.100Z,100665.47
2019-05-06T19:18:32.332Z,100669.35
2019-05-06T19:21:05.124Z,100672.74
2019-05-06T19:23:37.367Z,100667.67
2019-05-06T19:26:12.213Z,100674.11
2019-05-06T19:28:43.147Z,100679.20
2019-05-06T19:31:18.089Z,100671.73
2019-05-06T19:33:52.607Z,100674.27
2019-05-06T19:36:24.880Z,100685.33
2019-05-06T19:38:57.062Z,100685.33
2019-05-06T19:41:29.363Z,100683.81
2019-05-06T19:44:02.202Z,100686.02
2019-05-06T19:46:34.879Z,100683.15
2019-05-06T19:49:07.860Z,100683.66
2019-05-06T19:51:39.840Z,100683.48
2019-05-06T19:54:12.627Z,100688.24
2019-05-06T19:56:44.888Z,100687.04
2019-05-06T19:59:16.856Z,100685.86
2019-05-06T20:01:49.330Z,100689.44
2019-05-06T20:04:22.811Z,100688.40
2019-05-06T20:07:06.718Z,100681.95
2019-05-06T20:09:54.539Z,100684.67
2019-05-06T20:12:40.396Z,100681.61
2019-05-06T20:15:30.493Z,100681.61
2019-05-06T20:18:03.152Z,100684.66
2019-05-06T20:20:35.852Z,100688.06
2019-05-06T20:23:08.098Z,100690.09
2019-05-06T20:25:42.584Z,100697.41
2019-05-06T20:28:14.183Z,100705.75
2019-05-06T20:30:46.528Z,100694.37
2019-05-06T20:33:18.826Z,100694.52
2019-05-06T20:35:52.553Z,100697.93
2019-05-06T20:38:25.333Z,100690.96
2019-05-06T20:40:57.869Z,100694.37
2019-05-06T20:43:32.308Z,100687.58
2019-05-06T20:46:04.332Z,100683.67
2019-05-06T20:48:36.935Z,100684.84
2019-05-06T20:51:08.847Z,100685.86
2019-05-06T20:53:42.983Z,100680.94
2019-05-06T20:56:14.834Z,100673.81
2019-05-06T20:58:46.829Z,100673.81
2019-05-06T21:01:18.859Z,100675.50
2019-05-06T21:03:52.725Z,100672.80
2019-05-06T21:06:24.280Z,100664.98
2019-05-06T21:08:56.284Z,100668.20
2019-05-06T21:11:29.356Z,100668.55
2019-05-06T21:14:02.315Z,100665.83
2019-05-06T21:16:34.869Z,100665.83
2019-05-06T21:19:06.837Z,100672.11
2019-05-06T21:21:38.929Z,100674.13
2019-05-06T21:24:12.921Z,100671.78
2019-05-06T21:26:50.548Z,100671.24
2019-05-06T21:29:24.816Z,100671.24
2019-05-06T21:31:56.835Z,100668.38
2019-05-06T21:34:29.003Z,100670.92
2019-05-06T21:37:03.299Z,100668.70
2019-05-06T21:39:35.913Z,100673.44
2019-05-06T21:42:08.073Z,100672.25
2019-05-06T21:44:42.825Z,100672.06
2019-05-06T21:47:14.845Z,100672.59
2019-05-06T21:49:47.043Z,100676.84
2019-05-06T21:52:19.104Z,100678.19
2019-05-06T21:54:52.540Z,100671.91
2019-05-06T21:57:23.703Z,100673.09
2019-05-06T21:59:54.697Z,100667.33
2019-05-06T22:02:26.290Z,100674.13
2019-05-06T22:05:02.663Z,100667.33
2019-05-06T22:07:35.867Z,100665.41
2019-05-06T22:10:08.884Z,100666.58
2019-05-06T22:12:43.378Z,100671.69
2019-05-06T22:15:15.323Z,100660.00
2019-05-06T22:17:49.395Z,100660.69
2019-05-06T22:20:23.736Z,100660.47
2019-05-06T22:22:55.921Z,100655.04
2019-05-06T22:25:28.337Z,100655.04
2019-05-06T22:28:02.369Z,100666.92
2019-05-06T22:30:34.862Z,100665.73
2019-05-06T22:33:06.936Z,100657.74
2019-05-06T22:35:38.928Z,100657.37
2019-05-06T22:38:12.337Z,100662.83
2019-05-06T22:40:45.033Z,100651.42
2019-05-06T22:43:17.340Z,100656.54
2019-05-06T22:45:49.851Z,100656.54
2019-05-06T22:48:23.628Z,100656.22
2019-05-06T22:50:55.888Z,100632.24
2019-05-06T22:53:27.819Z,100632.24
2019-05-06T22:56:02.653Z,100651.95
2019-05-06T22:58:34.882Z,100647.70
2019-05-06T23:01:13.043Z,100646.16
2019-05-06T23:03:46.630Z,100646.52
2019-05-06T23:06:19.185Z,100642.10
2019-05-06T23:08:56.220Z,100642.10
2019-05-06T23:11:28.834Z,100627.67
2019-05-06T23:14:02.736Z,100624.30
2019-05-06T23:16:35.022Z,100629.40
2019-05-06T23:19:08.329Z,100627.16
2019-05-06T23:21:43.098Z,100630.22
2019-05-06T23:24:14.909Z,100629.86
2019-05-06T23:26:46.891Z,100629.86
2019-05-06T23:29:18.894Z,100632.91
2019-05-06T23:31:52.107Z,100635.13
2019-05-06T23:34:25.337Z,100634.11
2019-05-06T23:37:23.827Z,100633.27
2019-05-06T23:41:09.077Z,100635.61
2019-05-06T23:44:54.759Z,100637.11
2019-05-06T23:48:40.362Z,100628.31
2019-05-06T23:52:25.882Z,100624.70
2019-05-06T23:56:10.684Z,100621.47
2019-05-06T23:58:43.503Z,100623.70
